< Typhoon 195222 1952 Season Typhoon 195224 >
Typhoon 195223 (DELLA)
General InformationTrack Information on Google Maps || Disaster Info.ResourceGoogle EarthGE AnimationAtom FeedGeoJSON
Detalied Best Track (Time Zone = UTC)
Year Month Day Hour Lat. Long. Pressure (hPa) Wind (kt) Class Image Chart
1952 11 20 12 6.7 144.4 1004 0 2 -- Chart
1952 11 20 18 7.5 142.4 1000 0 2 -- Chart
1952 11 21 00 7.8 140.2 1000 0 2 -- Chart
1952 11 21 06 8.2 137.7 1000 0 2 -- Chart
1952 11 21 12 8.3 135.7 1000 0 2 -- Chart
1952 11 21 18 8.4 133.1 1000 0 2 -- Chart
1952 11 22 00 8.5 131.1 1000 0 2 -- Chart
1952 11 22 06 9.7 129.4 998 0 2 -- Chart
1952 11 22 12 11.4 128.9 995 0 2 -- Chart
1952 11 22 18 12.7 128.5 995 0 2 -- Chart
1952 11 23 00 13.7 127.7 990 0 9 -- Chart
1952 11 23 06 14.9 126.9 990 0 9 -- Chart
1952 11 23 12 15.3 125.5 990 0 9 -- Chart
1952 11 23 18 14.8 124.7 990 0 9 -- Chart
1952 11 24 00 14.5 124.2 990 0 9 -- Chart
1952 11 24 06 15.2 124.1 985 0 9 -- Chart
1952 11 24 12 15.7 123.7 980 0 9 -- Chart
1952 11 24 18 16.4 123.0 980 0 9 -- Chart
1952 11 25 00 17.0 122.3 980 0 9 -- Chart
1952 11 25 06 17.7 122.0 980 0 9 -- Chart
1952 11 25 12 18.2 121.6 980 0 9 -- Chart
1952 11 25 18 19.0 121.1 982 0 9 -- Chart
1952 11 26 00 19.9 120.6 982 0 9 -- Chart
1952 11 26 06 20.7 120.3 982 0 9 -- Chart
1952 11 26 12 21.7 120.5 990 0 9 -- Chart
1952 11 26 18 22.5 120.0 990 0 9 -- Chart
1952 11 27 00 23.5 119.9 995 0 9 -- Chart
1952 11 27 06 23.7 119.7 1004 0 6 -- Chart
1952 11 27 12 25.6 120.5 1000 0 6 -- Chart
Japan Meteorological Agency Best Track Data | Correction Date : 1989-06-01
< Typhoon 195222 1952 Season Typhoon 195224 >

Help